createdAt,value
2019-03-27T00:02:14.804Z,7.73
2019-03-27T00:04:42.580Z,6.87
2019-03-27T00:07:10.554Z,10.30
2019-03-27T00:09:38.199Z,7.40
2019-03-27T00:12:06.091Z,7.80
2019-03-27T00:14:33.789Z,13.17
2019-03-27T00:17:01.403Z,7.73
2019-03-27T00:19:29.175Z,11.47
2019-03-27T00:21:56.844Z,10.43
2019-03-27T00:24:24.603Z,10.43
2019-03-27T00:26:52.579Z,8.27
2019-03-27T00:29:20.436Z,11.00
2019-03-27T00:31:48.071Z,7.30
2019-03-27T00:34:15.871Z,8.73
2019-03-27T00:36:43.533Z,8.27
2019-03-27T00:39:11.409Z,9.90
2019-03-27T00:41:39.277Z,12.90
2019-03-27T00:44:07.251Z,8.43
2019-03-27T00:46:35.000Z,8.57
2019-03-27T00:49:02.769Z,10.03
2019-03-27T00:51:30.646Z,10.43
2019-03-27T00:53:58.287Z,7.80
2019-03-27T00:56:26.082Z,9.13
2019-03-27T00:58:53.719Z,7.37
2019-03-27T01:01:21.396Z,8.27
2019-03-27T01:03:49.161Z,8.07
2019-03-27T01:06:16.925Z,12.93
2019-03-27T01:08:44.706Z,12.53
2019-03-27T01:11:12.674Z,9.03
2019-03-27T01:13:40.434Z,9.80
2019-03-27T01:16:08.306Z,11.20
2019-03-27T01:18:36.051Z,10.10
2019-03-27T01:21:04.055Z,8.07
2019-03-27T01:23:31.804Z,9.73
2019-03-27T01:25:59.551Z,10.07
2019-03-27T01:28:27.438Z,8.13
2019-03-27T01:30:55.220Z,10.90
2019-03-27T01:33:23.383Z,8.10
2019-03-27T01:35:51.012Z,8.53
2019-03-27T01:38:18.792Z,6.03
2019-03-27T01:40:46.584Z,6.60
2019-03-27T01:43:14.333Z,5.47
2019-03-27T01:45:52.478Z,9.33
2019-03-27T01:48:11.757Z,7.33
2019-03-27T01:50:39.480Z,12.30
2019-03-27T01:53:07.231Z,6.47
2019-03-27T01:55:34.942Z,9.70
2019-03-27T01:58:02.669Z,8.77
2019-03-27T02:00:30.339Z,8.63
2019-03-27T02:02:57.996Z,12.13
2019-03-27T02:05:25.876Z,8.73
2019-03-27T02:07:53.644Z,12.93
2019-03-27T02:10:21.398Z,10.50
2019-03-27T02:12:49.274Z,15.87
2019-03-27T02:15:17.138Z,11.63
2019-03-27T02:17:45.014Z,13.37
2019-03-27T02:20:12.986Z,10.13
2019-03-27T02:22:40.637Z,7.53
2019-03-27T02:25:08.920Z,8.50
2019-03-27T02:27:36.689Z,10.83
2019-03-27T02:30:08.554Z,14.03
2019-03-27T02:32:36.425Z,10.77
2019-03-27T02:35:04.681Z,10.07
2019-03-27T02:37:32.473Z,10.47
2019-03-27T02:40:00.437Z,12.03
2019-03-27T02:42:28.180Z,10.47
2019-03-27T02:44:55.974Z,8.87
2019-03-27T02:47:23.743Z,12.70
2019-03-27T02:49:51.613Z,10.23
2019-03-27T02:52:19.473Z,12.47
2019-03-27T02:54:47.342Z,15.97
2019-03-27T02:57:15.116Z,17.33
2019-03-27T02:59:42.799Z,15.13
2019-03-27T03:02:10.638Z,10.43
2019-03-27T03:04:38.267Z,17.33
2019-03-27T03:07:05.959Z,17.10
2019-03-27T03:09:33.722Z,16.53
2019-03-27T03:12:01.496Z,16.40
2019-03-27T03:14:29.366Z,12.43
2019-03-27T03:16:57.226Z,12.53
2019-03-27T03:19:24.888Z,8.20
2019-03-27T03:21:52.658Z,11.43
2019-03-27T03:24:20.419Z,13.97
2019-03-27T03:26:50.975Z,11.67
2019-03-27T03:29:17.585Z,8.33
2019-03-27T03:31:45.358Z,13.23
2019-03-27T03:34:13.107Z,14.13
2019-03-27T03:36:40.794Z,19.00
2019-03-27T03:39:08.455Z,13.43
2019-03-27T03:41:36.135Z,19.23
2019-03-27T03:44:03.894Z,17.70
2019-03-27T03:46:31.643Z,16.13
2019-03-27T03:48:59.416Z,15.00
2019-03-27T03:51:27.069Z,14.53
2019-03-27T03:53:54.839Z,14.30
2019-03-27T03:56:23.427Z,13.87
2019-03-27T03:58:52.119Z,16.83
2019-03-27T04:01:20.285Z,14.03
2019-03-27T04:03:48.352Z,13.63
2019-03-27T04:06:16.236Z,10.27
2019-03-27T04:08:43.881Z,16.13
2019-03-27T04:11:11.670Z,17.47
2019-03-27T04:13:39.441Z,12.90
2019-03-27T04:16:07.193Z,12.73
2019-03-27T04:18:34.958Z,13.10
2019-03-27T04:21:02.717Z,11.50
2019-03-27T04:23:30.504Z,11.67
2019-03-27T04:26:09.578Z,11.37
2019-03-27T04:28:27.652Z,16.10
2019-03-27T04:30:55.310Z,13.67
2019-03-27T04:33:23.089Z,9.60
2019-03-27T04:35:50.738Z,15.90
2019-03-27T04:38:18.531Z,15.57
2019-03-27T04:40:46.208Z,14.60
2019-03-27T04:43:13.932Z,14.93
2019-03-27T04:45:41.709Z,20.53
2019-03-27T04:48:09.582Z,14.83
2019-03-27T04:50:37.278Z,12.23
2019-03-27T04:53:05.011Z,12.77
2019-03-27T04:55:32.645Z,13.73
2019-03-27T04:58:00.343Z,13.27
2019-03-27T05:00:28.206Z,9.30
2019-03-27T05:02:55.983Z,10.50
2019-03-27T05:05:23.710Z,11.57
2019-03-27T05:07:51.507Z,10.80
2019-03-27T05:10:19.377Z,8.87
2019-03-27T05:12:47.065Z,11.63
2019-03-27T05:15:16.103Z,12.17
2019-03-27T05:17:46.348Z,15.47
2019-03-27T05:20:13.515Z,9.33
2019-03-27T05:22:41.264Z,10.60
2019-03-27T05:25:09.041Z,11.57
2019-03-27T05:27:36.910Z,11.50
2019-03-27T05:30:06.111Z,14.50
2019-03-27T05:32:33.782Z,20.43
2019-03-27T05:35:01.644Z,20.67
2019-03-27T05:37:29.343Z,21.13
2019-03-27T05:39:57.176Z,18.50
2019-03-27T05:42:24.828Z,23.67
2019-03-27T05:44:52.597Z,25.67
2019-03-27T05:47:20.370Z,35.33
2019-03-27T05:49:48.003Z,59.30
2019-03-27T05:52:16.006Z,65.00
2019-03-27T05:54:43.782Z,59.80
2019-03-27T05:57:11.546Z,45.63
2019-03-27T05:59:39.294Z,48.73
2019-03-27T06:02:07.061Z,45.50
2019-03-27T06:04:34.835Z,44.63
2019-03-27T06:07:02.703Z,41.13
2019-03-27T06:09:30.467Z,49.10
2019-03-27T06:11:58.234Z,68.67
2019-03-27T06:14:26.011Z,79.30
2019-03-27T06:16:53.769Z,54.87
2019-03-27T06:19:21.525Z,48.37
2019-03-27T06:21:49.397Z,24.03
2019-03-27T06:24:17.174Z,24.70
2019-03-27T06:26:44.933Z,19.80
2019-03-27T06:29:15.726Z,31.70
2019-03-27T06:31:42.301Z,35.87
2019-03-27T06:34:10.074Z,31.53
2019-03-27T06:36:37.877Z,34.80
2019-03-27T06:39:06.052Z,37.30
2019-03-27T06:41:33.764Z,35.80
2019-03-27T06:44:01.559Z,40.63
2019-03-27T06:46:29.199Z,31.50
2019-03-27T06:48:56.982Z,30.37
2019-03-27T06:51:25.345Z,28.00
2019-03-27T06:53:53.439Z,24.77
2019-03-27T06:56:21.174Z,22.23
2019-03-27T06:58:54.751Z,19.50
2019-03-27T07:01:18.452Z,20.53
2019-03-27T07:03:46.226Z,21.40
2019-03-27T07:06:13.863Z,24.73
2019-03-27T07:08:41.647Z,22.83
2019-03-27T07:11:09.425Z,22.67
2019-03-27T07:13:37.202Z,25.67
2019-03-27T07:16:05.576Z,31.27
2019-03-27T07:18:39.923Z,27.30
2019-03-27T07:21:02.956Z,22.93
2019-03-27T07:23:30.809Z,29.00
2019-03-27T07:25:58.582Z,25.30
2019-03-27T07:28:26.454Z,27.37
2019-03-27T07:30:54.099Z,24.93
2019-03-27T07:33:21.894Z,24.23
2019-03-27T07:35:49.647Z,24.90
2019-03-27T07:38:17.415Z,19.87
2019-03-27T07:40:45.073Z,17.43
2019-03-27T07:43:12.824Z,16.03
2019-03-27T07:45:40.607Z,14.43
2019-03-27T07:48:08.780Z,10.80
2019-03-27T07:50:36.545Z,13.13
2019-03-27T07:53:04.314Z,12.73
2019-03-27T07:55:32.090Z,10.60
2019-03-27T07:57:59.743Z,9.50
2019-03-27T08:00:27.455Z,13.73
2019-03-27T08:02:55.165Z,10.50
2019-03-27T08:05:22.936Z,9.97
2019-03-27T08:07:50.697Z,15.57
2019-03-27T08:10:18.332Z,7.37
2019-03-27T08:12:45.968Z,8.63
2019-03-27T08:15:13.892Z,6.83
2019-03-27T08:17:41.658Z,7.03
2019-03-27T08:20:09.747Z,7.57
2019-03-27T08:22:37.500Z,8.27
2019-03-27T08:25:06.307Z,9.57
2019-03-27T08:27:34.159Z,5.40
2019-03-27T08:30:01.838Z,9.50
2019-03-27T08:32:29.505Z,9.07
2019-03-27T08:34:57.213Z,7.30
2019-03-27T08:37:24.946Z,7.60
2019-03-27T08:39:52.619Z,8.40
2019-03-27T08:42:20.660Z,6.83
2019-03-27T08:44:48.526Z,8.10
2019-03-27T08:47:16.271Z,9.83
2019-03-27T08:49:44.062Z,5.07
2019-03-27T08:52:11.700Z,4.80
2019-03-27T08:54:39.485Z,7.87
2019-03-27T08:57:07.252Z,4.83
2019-03-27T08:59:34.895Z,4.97
2019-03-27T09:02:02.655Z,5.40
2019-03-27T09:04:30.543Z,8.53
2019-03-27T09:06:58.244Z,6.30
2019-03-27T09:09:25.920Z,5.73
2019-03-27T09:11:53.638Z,4.83
2019-03-27T09:14:21.449Z,7.73
2019-03-27T09:16:49.277Z,5.00
2019-03-27T09:19:17.073Z,8.50
2019-03-27T09:21:46.582Z,8.03
2019-03-27T09:24:14.214Z,7.10
2019-03-27T09:26:41.939Z,4.93
2019-03-27T09:29:09.619Z,5.23
2019-03-27T09:31:44.637Z,6.57
2019-03-27T09:34:06.811Z,6.53
2019-03-27T09:36:34.575Z,7.67
2019-03-27T09:39:02.328Z,5.63
2019-03-27T09:41:30.105Z,8.93
2019-03-27T09:43:58.183Z,6.17
2019-03-27T09:46:25.853Z,5.90
2019-03-27T09:48:53.510Z,6.20
2019-03-27T09:51:21.173Z,8.13
2019-03-27T09:53:48.873Z,6.77
2019-03-27T09:56:19.472Z,9.20
2019-03-27T09:58:46.917Z,7.50
2019-03-27T10:01:14.798Z,7.63
2019-03-27T10:03:42.556Z,11.03
2019-03-27T10:06:10.442Z,9.53
2019-03-27T10:08:38.143Z,9.97
2019-03-27T10:11:05.779Z,8.80
2019-03-27T10:13:33.531Z,10.47
2019-03-27T10:16:01.298Z,8.27
2019-03-27T10:18:29.358Z,9.20
2019-03-27T10:20:57.139Z,7.57
2019-03-27T10:23:25.512Z,18.17
2019-03-27T10:25:53.282Z,7.97
2019-03-27T10:28:21.037Z,8.43
2019-03-27T10:30:48.710Z,11.80
2019-03-27T10:33:16.465Z,6.83
2019-03-27T10:35:44.343Z,8.40
2019-03-27T10:38:12.096Z,7.80
2019-03-27T10:40:39.865Z,7.83
2019-03-27T10:43:07.632Z,8.60
2019-03-27T10:45:35.505Z,10.60
2019-03-27T10:48:03.281Z,7.70
2019-03-27T10:50:30.888Z,9.57
2019-03-27T10:52:58.798Z,7.30
2019-03-27T10:55:26.500Z,8.77
2019-03-27T10:57:54.229Z,11.07
2019-03-27T11:00:22.199Z,9.97
2019-03-27T11:02:49.973Z,6.57
2019-03-27T11:05:17.730Z,8.30
2019-03-27T11:07:45.393Z,6.33
2019-03-27T11:10:13.262Z,6.03
2019-03-27T11:12:43.183Z,6.20
2019-03-27T11:15:11.170Z,8.40
2019-03-27T11:17:38.933Z,9.83
2019-03-27T11:20:07.089Z,8.73
2019-03-27T11:22:34.739Z,10.40
2019-03-27T11:25:02.420Z,7.03
2019-03-27T11:27:30.065Z,8.97
2019-03-27T11:29:57.841Z,9.70
2019-03-27T11:32:25.617Z,12.93
2019-03-27T11:34:53.486Z,9.77
2019-03-27T11:37:21.456Z,10.90
2019-03-27T11:39:49.326Z,11.43
2019-03-27T11:42:16.972Z,12.67
2019-03-27T11:44:44.855Z,9.73
2019-03-27T11:47:12.725Z,13.27
2019-03-27T11:49:40.596Z,14.17
2019-03-27T11:52:08.464Z,9.27
2019-03-27T11:54:36.433Z,13.17
2019-03-27T11:57:04.189Z,8.77
2019-03-27T11:59:31.953Z,11.50
2019-03-27T12:01:59.725Z,9.50
2019-03-27T12:04:27.702Z,10.60
2019-03-27T12:06:55.578Z,9.37
2019-03-27T12:09:23.315Z,10.07
2019-03-27T12:11:50.994Z,6.77
2019-03-27T12:14:18.872Z,10.40
2019-03-27T12:16:49.756Z,10.63
2019-03-27T12:19:16.024Z,8.07
2019-03-27T12:21:44.221Z,7.77
2019-03-27T12:24:12.389Z,11.20
2019-03-27T12:26:40.148Z,10.90
2019-03-27T12:29:08.000Z,8.47
2019-03-27T12:31:35.794Z,11.13
2019-03-27T12:34:03.545Z,7.30
2019-03-27T12:36:31.310Z,8.50
2019-03-27T12:38:59.030Z,16.00
2019-03-27T12:41:26.673Z,12.97
2019-03-27T12:43:54.421Z,13.30
2019-03-27T12:46:22.068Z,7.00
2019-03-27T12:48:49.745Z,7.07
2019-03-27T12:51:17.565Z,9.33
2019-03-27T12:53:45.364Z,7.70
2019-03-27T12:56:13.241Z,8.37
2019-03-27T12:58:40.988Z,6.57
2019-03-27T13:01:08.654Z,7.43
2019-03-27T13:03:36.638Z,6.37
2019-03-27T13:06:05.611Z,6.95
2019-03-27T13:08:34.633Z,9.13
2019-03-27T13:11:02.397Z,7.23
2019-03-27T13:13:30.261Z,8.63
2019-03-27T13:15:57.958Z,7.13
2019-03-27T13:18:25.588Z,10.10
2019-03-27T13:20:53.359Z,8.70
2019-03-27T13:23:21.227Z,8.10
2019-03-27T13:25:49.091Z,7.70
2019-03-27T13:28:16.855Z,8.23
2019-03-27T13:30:44.622Z,9.00
2019-03-27T13:33:12.498Z,8.27
2019-03-27T13:35:40.549Z,6.83
2019-03-27T13:38:08.434Z,7.13
2019-03-27T13:40:36.140Z,7.93
2019-03-27T13:43:03.968Z,10.00
2019-03-27T13:45:32.689Z,4.23
2019-03-27T13:48:00.438Z,6.63
2019-03-27T13:50:28.166Z,6.83
2019-03-27T13:52:55.839Z,8.37
2019-03-27T13:55:23.700Z,26.10
2019-03-27T13:57:51.347Z,15.57
2019-03-27T14:00:19.245Z,8.53
2019-03-27T14:02:47.054Z,9.13
2019-03-27T14:05:15.092Z,21.40
2019-03-27T14:07:42.952Z,21.50
2019-03-27T14:10:10.853Z,28.67
2019-03-27T14:12:38.702Z,11.87
2019-03-27T14:15:10.044Z,17.07
2019-03-27T14:17:37.788Z,9.67
2019-03-27T14:20:07.117Z,13.90
2019-03-27T14:22:34.873Z,7.43
2019-03-27T14:25:02.742Z,9.50
2019-03-27T14:27:30.612Z,6.37
2019-03-27T14:29:58.284Z,8.13
2019-03-27T14:32:25.948Z,13.67
2019-03-27T14:34:53.996Z,8.07
2019-03-27T14:37:21.877Z,5.50
2019-03-27T14:39:50.662Z,9.00
2019-03-27T14:42:18.422Z,6.07
2019-03-27T14:44:46.097Z,6.13
2019-03-27T14:47:13.750Z,5.57
2019-03-27T14:49:41.529Z,7.77
2019-03-27T14:52:09.292Z,6.97
2019-03-27T14:54:37.053Z,9.00
2019-03-27T14:57:04.842Z,7.20
2019-03-27T14:59:32.771Z,9.53
2019-03-27T15:02:00.560Z,6.87
2019-03-27T15:04:28.274Z,6.40
2019-03-27T15:06:55.937Z,4.33
2019-03-27T15:09:23.637Z,7.17
2019-03-27T15:11:51.421Z,27.50
2019-03-27T15:14:19.185Z,31.73
2019-03-27T15:16:46.962Z,18.90
2019-03-27T15:19:14.611Z,6.30
2019-03-27T15:21:42.483Z,6.07
2019-03-27T15:24:10.454Z,6.93
2019-03-27T15:26:38.222Z,6.37
2019-03-27T15:29:06.098Z,5.03
2019-03-27T15:31:33.736Z,6.27
2019-03-27T15:34:01.526Z,6.13
2019-03-27T15:36:29.385Z,7.07
2019-03-27T15:38:57.150Z,4.70
2019-03-27T15:41:24.927Z,7.33
2019-03-27T15:43:52.784Z,8.67
2019-03-27T15:46:20.564Z,6.37
2019-03-27T15:48:48.199Z,12.43
2019-03-27T15:51:15.897Z,7.77
2019-03-27T15:53:47.086Z,7.10
2019-03-27T15:56:14.068Z,6.37
2019-03-27T15:58:41.844Z,10.43
2019-03-27T16:01:09.595Z,11.03
2019-03-27T16:03:37.482Z,7.87
2019-03-27T16:06:05.767Z,8.63
2019-03-27T16:08:33.399Z,10.13
2019-03-27T16:11:01.322Z,11.33
2019-03-27T16:13:28.951Z,8.00
2019-03-27T16:15:56.815Z,12.30
2019-03-27T16:18:24.689Z,17.17
2019-03-27T16:20:52.458Z,23.37
2019-03-27T16:23:20.213Z,20.53
2019-03-27T16:25:47.985Z,11.00
2019-03-27T16:28:15.648Z,8.17
2019-03-27T16:30:43.522Z,7.37
2019-03-27T16:33:12.916Z,20.90
2019-03-27T16:35:40.580Z,16.77
2019-03-27T16:38:08.329Z,9.53
2019-03-27T16:40:42.882Z,12.00
2019-03-27T16:43:10.637Z,11.53
2019-03-27T16:45:38.709Z,28.90
2019-03-27T16:48:06.494Z,26.13
2019-03-27T16:50:35.321Z,25.50
2019-03-27T16:53:03.752Z,23.33
2019-03-27T16:55:31.704Z,21.37
2019-03-27T16:57:59.592Z,41.03
2019-03-27T17:00:27.452Z,41.80
2019-03-27T17:02:55.207Z,29.80
2019-03-27T17:05:22.971Z,25.20
2019-03-27T17:07:50.688Z,48.73
2019-03-27T17:10:18.522Z,30.00
2019-03-27T17:12:46.298Z,39.00
2019-03-27T17:15:14.266Z,21.03
2019-03-27T17:17:41.937Z,33.87
2019-03-27T17:20:10.395Z,44.13
2019-03-27T17:22:38.094Z,32.77
2019-03-27T17:25:07.046Z,51.43
2019-03-27T17:27:34.942Z,164.27
2019-03-27T17:30:02.682Z,148.13
2019-03-27T17:32:30.460Z,132.47
2019-03-27T17:34:58.435Z,181.10
2019-03-27T17:37:26.211Z,192.90
2019-03-27T17:39:53.974Z,150.03
2019-03-27T17:42:21.837Z,38.83
2019-03-27T17:44:52.100Z,48.77
2019-03-27T17:47:19.006Z,43.97
2019-03-27T17:49:46.869Z,55.13
2019-03-27T17:52:14.504Z,57.57
2019-03-27T17:54:42.286Z,59.87
2019-03-27T17:57:10.066Z,52.03
2019-03-27T17:59:37.714Z,61.70
2019-03-27T18:02:05.501Z,66.77
2019-03-27T18:04:33.230Z,44.10
2019-03-27T18:07:01.132Z,43.43
2019-03-27T18:09:29.003Z,76.27
2019-03-27T18:11:56.766Z,280.50
2019-03-27T18:14:24.631Z,348.70
2019-03-27T18:16:52.499Z,305.53
2019-03-27T18:19:20.374Z,415.63
2019-03-27T18:21:48.137Z,288.63
2019-03-27T18:24:16.007Z,129.03
2019-03-27T18:26:43.834Z,229.63
2019-03-27T18:29:11.637Z,468.63
2019-03-27T18:31:39.503Z,591.23
2019-03-27T18:34:07.378Z,515.97
2019-03-27T18:36:35.247Z,111.80
2019-03-27T18:39:03.218Z,54.07
2019-03-27T18:41:30.864Z,97.10
2019-03-27T18:43:58.641Z,96.90
2019-03-27T18:46:26.514Z,74.50
2019-03-27T18:48:54.485Z,79.57
2019-03-27T18:51:22.451Z,102.87
2019-03-27T18:53:59.670Z,85.67
2019-03-27T18:56:19.624Z,95.87
2019-03-27T18:58:47.399Z,130.63
2019-03-27T19:01:15.152Z,193.53
2019-03-27T19:03:42.927Z,62.37
2019-03-27T19:06:10.690Z,60.33
2019-03-27T19:08:38.523Z,52.93
2019-03-27T19:11:06.325Z,41.70
2019-03-27T19:13:34.254Z,41.00
2019-03-27T19:16:02.163Z,66.77
2019-03-27T19:18:29.923Z,77.13
2019-03-27T19:20:57.689Z,73.50
2019-03-27T19:23:25.557Z,114.77
2019-03-27T19:25:53.446Z,43.30
2019-03-27T19:28:21.165Z,28.47
2019-03-27T19:30:48.857Z,37.43
2019-03-27T19:33:16.723Z,45.77
2019-03-27T19:35:44.590Z,128.30
2019-03-27T19:38:12.461Z,100.30
2019-03-27T19:40:40.107Z,57.60
2019-03-27T19:43:07.894Z,36.00
2019-03-27T19:45:35.836Z,30.10
2019-03-27T19:48:03.641Z,33.70
2019-03-27T19:50:31.597Z,45.53
2019-03-27T19:52:59.316Z,116.90
2019-03-27T19:55:27.237Z,74.50
2019-03-27T19:57:55.000Z,39.97
2019-03-27T20:00:22.943Z,30.80
2019-03-27T20:02:50.747Z,32.23
2019-03-27T20:05:18.496Z,29.40
2019-03-27T20:07:46.472Z,29.47
2019-03-27T20:10:14.548Z,27.43
2019-03-27T20:12:42.427Z,33.73
2019-03-27T20:15:12.789Z,28.20
2019-03-27T20:17:40.294Z,24.93
2019-03-27T20:20:08.477Z,24.47
2019-03-27T20:22:36.228Z,26.83
2019-03-27T20:25:05.441Z,28.67
2019-03-27T20:27:33.148Z,26.83
2019-03-27T20:30:00.795Z,29.47
2019-03-27T20:32:28.634Z,35.37
2019-03-27T20:34:56.399Z,30.77
2019-03-27T20:37:24.269Z,35.47
2019-03-27T20:39:52.038Z,33.17
2019-03-27T20:42:19.705Z,30.47
2019-03-27T20:44:47.447Z,30.30
2019-03-27T20:47:15.338Z,38.00
2019-03-27T20:49:43.083Z,39.57
2019-03-27T20:52:10.748Z,37.73
2019-03-27T20:54:38.636Z,48.87
2019-03-27T20:57:06.505Z,105.43
2019-03-27T20:59:34.475Z,149.83
2019-03-27T21:02:02.161Z,80.30
2019-03-27T21:04:30.007Z,47.53
2019-03-27T21:06:57.778Z,40.60
2019-03-27T21:09:25.744Z,31.80
2019-03-27T21:11:56.112Z,32.90
2019-03-27T21:14:23.229Z,26.60
2019-03-27T21:16:51.090Z,34.00
2019-03-27T21:19:19.157Z,31.70
2019-03-27T21:21:46.936Z,27.80
2019-03-27T21:24:14.715Z,32.60
2019-03-27T21:26:43.647Z,92.00
2019-03-27T21:29:11.396Z,41.03
2019-03-27T21:31:39.119Z,24.37
2019-03-27T21:34:06.865Z,25.60
2019-03-27T21:36:34.653Z,26.67
2019-03-27T21:39:02.505Z,23.23
2019-03-27T21:41:30.381Z,26.97
2019-03-27T21:43:58.250Z,28.47
2019-03-27T21:46:26.014Z,26.67
2019-03-27T21:48:53.891Z,32.70
2019-03-27T21:51:21.589Z,24.37
2019-03-27T21:53:50.761Z,25.93
2019-03-27T21:56:18.641Z,31.63
2019-03-27T21:58:46.313Z,30.50
2019-03-27T22:01:14.097Z,29.27
2019-03-27T22:03:41.923Z,33.63
2019-03-27T22:06:09.681Z,34.37
2019-03-27T22:08:37.445Z,33.33
2019-03-27T22:11:05.117Z,36.93
2019-03-27T22:13:32.885Z,28.20
2019-03-27T22:16:01.276Z,26.17
2019-03-27T22:18:29.239Z,30.27
2019-03-27T22:20:57.003Z,34.17
2019-03-27T22:23:24.771Z,29.23
2019-03-27T22:25:52.470Z,37.53
2019-03-27T22:28:20.402Z,29.27
2019-03-27T22:30:48.275Z,33.37
2019-03-27T22:33:16.133Z,33.37
2019-03-27T22:35:43.830Z,30.57
2019-03-27T22:38:11.771Z,32.87
2019-03-27T22:40:39.642Z,40.37
2019-03-27T22:43:07.505Z,41.67
2019-03-27T22:45:35.372Z,35.40
2019-03-27T22:48:03.175Z,35.90
2019-03-27T22:50:30.911Z,228.73
2019-03-27T22:52:58.682Z,133.60
2019-03-27T22:55:26.540Z,388.33
2019-03-27T22:57:54.318Z,80.10
2019-03-27T23:00:23.614Z,76.07
2019-03-27T23:02:51.475Z,34.97
2019-03-27T23:05:19.344Z,45.17
2019-03-27T23:07:47.218Z,68.13
2019-03-27T23:10:15.184Z,42.07
2019-03-27T23:12:43.051Z,48.50
2019-03-27T23:15:10.919Z,47.13
2019-03-27T23:17:38.786Z,57.30
2019-03-27T23:20:06.694Z,42.17
2019-03-27T23:22:34.534Z,110.20
2019-03-27T23:25:02.401Z,53.57
2019-03-27T23:27:30.169Z,44.13
2019-03-27T23:29:58.025Z,37.20
2019-03-27T23:32:25.726Z,37.57
2019-03-27T23:34:53.464Z,40.47
2019-03-27T23:37:21.325Z,38.03
2019-03-27T23:39:49.191Z,37.70
2019-03-27T23:42:17.063Z,32.73
2019-03-27T23:44:44.766Z,34.97
2019-03-27T23:47:12.593Z,31.50
2019-03-27T23:49:40.460Z,29.73
2019-03-27T23:52:08.430Z,27.37
2019-03-27T23:54:36.306Z,29.77
2019-03-27T23:57:04.071Z,29.83
2019-03-27T23:59:31.841Z,28.80
